sensor_id;sensor_type;location;lat;lon;timestamp;P1;durP1;ratioP1;P2;durP2;ratioP2
26946;SDS011;14501;52.282;10.560;2023-04-25T00:00:04;16.60;;;3.58;;
26946;SDS011;14501;52.282;10.560;2023-04-25T00:02:32;8.10;;;3.05;;
26946;SDS011;14501;52.282;10.560;2023-04-25T00:04:59;6.18;;;2.95;;
26946;SDS011;14501;52.282;10.560;2023-04-25T00:07:26;10.15;;;3.80;;
26946;SDS011;14501;52.282;10.560;2023-04-25T00:09:52;11.90;;;4.55;;
26946;SDS011;14501;52.282;10.560;2023-04-25T00:12:18;9.43;;;3.70;;
26946;SDS011;14501;52.282;10.560;2023-04-25T00:14:44;10.25;;;3.65;;
26946;SDS011;14501;52.282;10.560;2023-04-25T00:17:11;7.45;;;3.13;;
26946;SDS011;14501;52.282;10.560;2023-04-25T00:19:37;11.00;;;3.90;;
26946;SDS011;14501;52.282;10.560;2023-04-25T00:22:03;7.32;;;3.22;;
26946;SDS011;14501;52.282;10.560;2023-04-25T00:24:30;8.20;;;3.63;;
26946;SDS011;14501;52.282;10.560;2023-04-25T00:26:56;7.00;;;3.60;;
26946;SDS011;14501;52.282;10.560;2023-04-25T00:29:21;13.38;;;3.85;;
26946;SDS011;14501;52.282;10.560;2023-04-25T00:31:47;7.53;;;3.95;;
26946;SDS011;14501;52.282;10.560;2023-04-25T00:34:13;13.77;;;3.90;;
26946;SDS011;14501;52.282;10.560;2023-04-25T00:36:38;7.25;;;3.08;;
26946;SDS011;14501;52.282;10.560;2023-04-25T00:39:04;8.27;;;4.00;;
26946;SDS011;14501;52.282;10.560;2023-04-25T00:41:31;6.60;;;3.63;;
26946;SDS011;14501;52.282;10.560;2023-04-25T00:43:58;12.23;;;4.10;;
26946;SDS011;14501;52.282;10.560;2023-04-25T00:46:25;10.05;;;3.80;;
26946;SDS011;14501;52.282;10.560;2023-04-25T00:48:51;9.63;;;4.28;;
26946;SDS011;14501;52.282;10.560;2023-04-25T00:51:19;8.77;;;3.55;;
26946;SDS011;14501;52.282;10.560;2023-04-25T00:53:45;10.27;;;3.95;;
26946;SDS011;14501;52.282;10.560;2023-04-25T00:56:12;10.23;;;3.78;;
26946;SDS011;14501;52.282;10.560;2023-04-25T00:58:37;10.60;;;3.85;;
26946;SDS011;14501;52.282;10.560;2023-04-25T01:01:05;11.82;;;3.97;;
26946;SDS011;14501;52.282;10.560;2023-04-25T01:03:32;11.27;;;4.22;;
26946;SDS011;14501;52.282;10.560;2023-04-25T01:06:00;9.80;;;3.80;;
26946;SDS011;14501;52.282;10.560;2023-04-25T01:08:27;4.60;;;3.35;;
26946;SDS011;14501;52.282;10.560;2023-04-25T01:10:53;6.60;;;3.75;;
26946;SDS011;14501;52.282;10.560;2023-04-25T01:13:19;7.55;;;3.58;;
26946;SDS011;14501;52.282;10.560;2023-04-25T01:15:45;15.43;;;3.85;;
26946;SDS011;14501;52.282;10.560;2023-04-25T01:18:11;8.35;;;3.53;;
26946;SDS011;14501;52.282;10.560;2023-04-25T01:20:37;8.18;;;4.00;;
26946;SDS011;14501;52.282;10.560;2023-04-25T01:23:03;11.52;;;3.13;;
26946;SDS011;14501;52.282;10.560;2023-04-25T01:25:30;7.35;;;3.47;;
26946;SDS011;14501;52.282;10.560;2023-04-25T01:27:56;8.52;;;3.67;;
26946;SDS011;14501;52.282;10.560;2023-04-25T01:30:23;12.15;;;3.70;;
26946;SDS011;14501;52.282;10.560;2023-04-25T01:32:51;8.70;;;3.70;;
26946;SDS011;14501;52.282;10.560;2023-04-25T01:35:19;9.38;;;3.70;;
26946;SDS011;14501;52.282;10.560;2023-04-25T01:37:45;9.90;;;4.30;;
26946;SDS011;14501;52.282;10.560;2023-04-25T01:40:10;8.88;;;3.85;;
26946;SDS011;14501;52.282;10.560;2023-04-25T01:42:41;14.85;;;3.67;;
26946;SDS011;14501;52.282;10.560;2023-04-25T01:45:08;10.32;;;3.70;;
26946;SDS011;14501;52.282;10.560;2023-04-25T01:47:34;12.25;;;3.33;;
26946;SDS011;14501;52.282;10.560;2023-04-25T01:50:00;7.10;;;3.47;;
26946;SDS011;14501;52.282;10.560;2023-04-25T01:52:27;13.20;;;3.95;;
26946;SDS011;14501;52.282;10.560;2023-04-25T01:54:52;12.05;;;3.95;;
26946;SDS011;14501;52.282;10.560;2023-04-25T01:57:19;9.73;;;4.57;;
26946;SDS011;14501;52.282;10.560;2023-04-25T01:59:45;10.43;;;4.50;;
26946;SDS011;14501;52.282;10.560;2023-04-25T02:02:11;11.13;;;4.38;;
26946;SDS011;14501;52.282;10.560;2023-04-25T02:04:37;11.50;;;4.03;;
26946;SDS011;14501;52.282;10.560;2023-04-25T02:07:03;10.52;;;4.00;;
26946;SDS011;14501;52.282;10.560;2023-04-25T02:09:29;11.10;;;4.07;;
26946;SDS011;14501;52.282;10.560;2023-04-25T02:11:54;9.23;;;4.43;;
26946;SDS011;14501;52.282;10.560;2023-04-25T02:14:20;9.15;;;4.53;;
26946;SDS011;14501;52.282;10.560;2023-04-25T02:16:46;12.25;;;4.55;;
26946;SDS011;14501;52.282;10.560;2023-04-25T02:19:12;9.13;;;4.63;;
26946;SDS011;14501;52.282;10.560;2023-04-25T02:21:37;12.70;;;4.40;;
26946;SDS011;14501;52.282;10.560;2023-04-25T02:24:03;15.18;;;4.20;;
26946;SDS011;14501;52.282;10.560;2023-04-25T02:26:29;11.90;;;4.68;;
26946;SDS011;14501;52.282;10.560;2023-04-25T02:28:56;7.70;;;4.55;;
26946;SDS011;14501;52.282;10.560;2023-04-25T02:31:22;14.55;;;4.88;;
26946;SDS011;14501;52.282;10.560;2023-04-25T02:33:48;10.45;;;4.85;;
26946;SDS011;14501;52.282;10.560;2023-04-25T02:36:13;8.98;;;5.03;;
26946;SDS011;14501;52.282;10.560;2023-04-25T02:38:40;14.18;;;5.30;;
26946;SDS011;14501;52.282;10.560;2023-04-25T02:41:05;10.30;;;4.28;;
26946;SDS011;14501;52.282;10.560;2023-04-25T02:43:31;12.95;;;5.25;;
26946;SDS011;14501;52.282;10.560;2023-04-25T02:45:57;6.85;;;4.57;;
26946;SDS011;14501;52.282;10.560;2023-04-25T02:48:22;11.25;;;4.93;;
26946;SDS011;14501;52.282;10.560;2023-04-25T02:50:48;12.52;;;5.53;;
26946;SDS011;14501;52.282;10.560;2023-04-25T02:53:14;10.35;;;5.15;;
26946;SDS011;14501;52.282;10.560;2023-04-25T02:55:40;10.60;;;4.97;;
26946;SDS011;14501;52.282;10.560;2023-04-25T02:58:05;11.10;;;4.72;;
26946;SDS011;14501;52.282;10.560;2023-04-25T03:00:31;15.23;;;5.68;;
26946;SDS011;14501;52.282;10.560;2023-04-25T03:02:57;9.73;;;5.40;;
26946;SDS011;14501;52.282;10.560;2023-04-25T03:05:22;12.80;;;5.68;;
26946;SDS011;14501;52.282;10.560;2023-04-25T03:07:48;11.05;;;5.68;;
26946;SDS011;14501;52.282;10.560;2023-04-25T03:10:14;11.93;;;6.28;;
26946;SDS011;14501;52.282;10.560;2023-04-25T03:12:39;22.27;;;5.85;;
26946;SDS011;14501;52.282;10.560;2023-04-25T03:15:05;14.18;;;5.88;;
26946;SDS011;14501;52.282;10.560;2023-04-25T03:17:31;13.90;;;5.85;;
26946;SDS011;14501;52.282;10.560;2023-04-25T03:19:57;12.23;;;5.95;;
26946;SDS011;14501;52.282;10.560;2023-04-25T03:22:22;13.95;;;5.85;;
26946;SDS011;14501;52.282;10.560;2023-04-25T03:24:48;16.02;;;6.47;;
26946;SDS011;14501;52.282;10.560;2023-04-25T03:27:15;10.57;;;5.68;;
26946;SDS011;14501;52.282;10.560;2023-04-25T03:29:41;14.15;;;6.38;;
26946;SDS011;14501;52.282;10.560;2023-04-25T03:32:06;15.27;;;6.65;;
26946;SDS011;14501;52.282;10.560;2023-04-25T03:34:32;16.23;;;6.20;;
26946;SDS011;14501;52.282;10.560;2023-04-25T03:36:57;13.90;;;6.30;;
26946;SDS011;14501;52.282;10.560;2023-04-25T03:39:23;13.48;;;6.75;;
26946;SDS011;14501;52.282;10.560;2023-04-25T03:41:49;13.93;;;6.07;;
26946;SDS011;14501;52.282;10.560;2023-04-25T03:44:15;17.38;;;6.40;;
26946;SDS011;14501;52.282;10.560;2023-04-25T03:46:40;8.93;;;5.93;;
26946;SDS011;14501;52.282;10.560;2023-04-25T03:49:06;12.20;;;6.43;;
26946;SDS011;14501;52.282;10.560;2023-04-25T03:51:32;12.88;;;6.55;;
26946;SDS011;14501;52.282;10.560;2023-04-25T03:53:57;13.73;;;6.07;;
26946;SDS011;14501;52.282;10.560;2023-04-25T03:56:23;11.02;;;5.90;;
26946;SDS011;14501;52.282;10.560;2023-04-25T03:58:48;13.02;;;4.70;;
26946;SDS011;14501;52.282;10.560;2023-04-25T04:01:14;13.40;;;4.10;;
26946;SDS011;14501;52.282;10.560;2023-04-25T04:03:40;12.38;;;4.00;;
26946;SDS011;14501;52.282;10.560;2023-04-25T04:06:05;16.40;;;4.38;;
26946;SDS011;14501;52.282;10.560;2023-04-25T04:08:32;12.73;;;3.50;;
26946;SDS011;14501;52.282;10.560;2023-04-25T04:10:58;13.07;;;3.45;;
26946;SDS011;14501;52.282;10.560;2023-04-25T04:13:27;13.32;;;4.60;;
26946;SDS011;14501;52.282;10.560;2023-04-25T04:15:55;20.10;;;4.65;;
26946;SDS011;14501;52.282;10.560;2023-04-25T04:18:21;15.48;;;3.65;;
26946;SDS011;14501;52.282;10.560;2023-04-25T04:20:46;13.73;;;3.80;;
26946;SDS011;14501;52.282;10.560;2023-04-25T04:23:12;9.20;;;3.30;;
26946;SDS011;14501;52.282;10.560;2023-04-25T04:25:38;14.18;;;3.97;;
26946;SDS011;14501;52.282;10.560;2023-04-25T04:28:04;15.02;;;4.65;;
26946;SDS011;14501;52.282;10.560;2023-04-25T04:30:32;14.73;;;4.30;;
26946;SDS011;14501;52.282;10.560;2023-04-25T04:33:01;14.75;;;3.92;;
26946;SDS011;14501;52.282;10.560;2023-04-25T04:35:27;13.40;;;3.10;;
26946;SDS011;14501;52.282;10.560;2023-04-25T04:37:53;14.90;;;4.10;;
26946;SDS011;14501;52.282;10.560;2023-04-25T04:40:19;14.32;;;4.18;;
26946;SDS011;14501;52.282;10.560;2023-04-25T04:42:46;21.58;;;4.65;;
26946;SDS011;14501;52.282;10.560;2023-04-25T04:45:12;15.18;;;3.95;;
26946;SDS011;14501;52.282;10.560;2023-04-25T04:47:38;18.75;;;3.70;;
26946;SDS011;14501;52.282;10.560;2023-04-25T04:50:05;15.40;;;3.85;;
26946;SDS011;14501;52.282;10.560;2023-04-25T04:52:33;15.88;;;4.78;;
26946;SDS011;14501;52.282;10.560;2023-04-25T04:55:00;18.15;;;4.53;;
26946;SDS011;14501;52.282;10.560;2023-04-25T04:57:25;15.80;;;3.70;;
26946;SDS011;14501;52.282;10.560;2023-04-25T04:59:51;9.85;;;3.55;;
26946;SDS011;14501;52.282;10.560;2023-04-25T05:02:18;13.00;;;3.42;;
26946;SDS011;14501;52.282;10.560;2023-04-25T05:04:43;13.30;;;4.20;;
26946;SDS011;14501;52.282;10.560;2023-04-25T05:07:10;13.23;;;3.78;;
26946;SDS011;14501;52.282;10.560;2023-04-25T05:09:36;19.13;;;4.55;;
26946;SDS011;14501;52.282;10.560;2023-04-25T05:12:01;18.15;;;4.05;;
26946;SDS011;14501;52.282;10.560;2023-04-25T05:14:27;23.30;;;5.45;;
26946;SDS011;14501;52.282;10.560;2023-04-25T05:16:53;11.75;;;3.45;;
26946;SDS011;14501;52.282;10.560;2023-04-25T05:19:19;22.95;;;5.25;;
26946;SDS011;14501;52.282;10.560;2023-04-25T05:21:45;18.48;;;3.67;;
26946;SDS011;14501;52.282;10.560;2023-04-25T05:24:10;13.73;;;3.97;;
26946;SDS011;14501;52.282;10.560;2023-04-25T05:26:37;16.52;;;3.70;;
26946;SDS011;14501;52.282;10.560;2023-04-25T05:29:02;13.38;;;3.70;;
26946;SDS011;14501;52.282;10.560;2023-04-25T05:31:28;15.95;;;3.70;;
26946;SDS011;14501;52.282;10.560;2023-04-25T05:33:53;12.45;;;3.42;;
26946;SDS011;14501;52.282;10.560;2023-04-25T05:36:19;18.05;;;4.07;;
26946;SDS011;14501;52.282;10.560;2023-04-25T05:38:45;16.63;;;3.95;;
26946;SDS011;14501;52.282;10.560;2023-04-25T05:41:11;13.10;;;3.83;;
26946;SDS011;14501;52.282;10.560;2023-04-25T05:43:36;11.55;;;3.28;;
26946;SDS011;14501;52.282;10.560;2023-04-25T05:46:02;11.70;;;3.47;;
26946;SDS011;14501;52.282;10.560;2023-04-25T05:48:28;14.27;;;4.47;;
26946;SDS011;14501;52.282;10.560;2023-04-25T05:50:53;13.55;;;3.85;;
26946;SDS011;14501;52.282;10.560;2023-04-25T05:53:19;16.00;;;3.33;;
26946;SDS011;14501;52.282;10.560;2023-04-25T05:55:46;20.30;;;4.10;;
26946;SDS011;14501;52.282;10.560;2023-04-25T05:58:12;20.20;;;3.42;;
26946;SDS011;14501;52.282;10.560;2023-04-25T06:00:37;12.82;;;3.58;;
26946;SDS011;14501;52.282;10.560;2023-04-25T06:03:03;26.77;;;3.53;;
26946;SDS011;14501;52.282;10.560;2023-04-25T06:05:29;20.98;;;3.35;;
26946;SDS011;14501;52.282;10.560;2023-04-25T06:07:54;14.70;;;2.85;;
26946;SDS011;14501;52.282;10.560;2023-04-25T06:10:20;9.18;;;2.70;;
26946;SDS011;14501;52.282;10.560;2023-04-25T06:12:46;12.30;;;2.92;;
26946;SDS011;14501;52.282;10.560;2023-04-25T06:15:12;6.75;;;2.28;;
26946;SDS011;14501;52.282;10.560;2023-04-25T06:17:38;17.33;;;4.18;;
26946;SDS011;14501;52.282;10.560;2023-04-25T06:20:04;11.30;;;2.60;;
26946;SDS011;14501;52.282;10.560;2023-04-25T06:22:31;11.45;;;2.72;;
26946;SDS011;14501;52.282;10.560;2023-04-25T06:24:56;10.90;;;2.83;;
26946;SDS011;14501;52.282;10.560;2023-04-25T06:27:24;12.02;;;2.67;;
26946;SDS011;14501;52.282;10.560;2023-04-25T06:29:50;13.13;;;3.08;;
26946;SDS011;14501;52.282;10.560;2023-04-25T06:32:15;15.55;;;3.17;;
26946;SDS011;14501;52.282;10.560;2023-04-25T06:34:42;13.85;;;2.50;;
26946;SDS011;14501;52.282;10.560;2023-04-25T06:37:08;6.80;;;1.98;;
26946;SDS011;14501;52.282;10.560;2023-04-25T06:39:34;6.22;;;2.15;;
26946;SDS011;14501;52.282;10.560;2023-04-25T06:42:00;10.93;;;2.38;;
26946;SDS011;14501;52.282;10.560;2023-04-25T06:44:26;13.00;;;2.80;;
26946;SDS011;14501;52.282;10.560;2023-04-25T06:46:54;14.77;;;2.17;;
26946;SDS011;14501;52.282;10.560;2023-04-25T06:49:19;11.60;;;2.78;;
26946;SDS011;14501;52.282;10.560;2023-04-25T06:51:45;14.90;;;3.13;;
26946;SDS011;14501;52.282;10.560;2023-04-25T06:54:11;16.67;;;2.53;;
26946;SDS011;14501;52.282;10.560;2023-04-25T06:56:36;14.55;;;2.70;;
26946;SDS011;14501;52.282;10.560;2023-04-25T06:59:02;11.55;;;3.15;;
26946;SDS011;14501;52.282;10.560;2023-04-25T07:01:28;10.55;;;2.40;;
26946;SDS011;14501;52.282;10.560;2023-04-25T07:03:53;11.05;;;2.53;;
26946;SDS011;14501;52.282;10.560;2023-04-25T07:06:19;9.07;;;2.63;;
26946;SDS011;14501;52.282;10.560;2023-04-25T07:08:45;10.55;;;2.53;;
26946;SDS011;14501;52.282;10.560;2023-04-25T07:11:11;11.80;;;2.42;;
26946;SDS011;14501;52.282;10.560;2023-04-25T07:13:36;11.82;;;2.63;;
26946;SDS011;14501;52.282;10.560;2023-04-25T07:16:02;9.45;;;2.00;;
26946;SDS011;14501;52.282;10.560;2023-04-25T07:18:28;12.30;;;2.28;;
26946;SDS011;14501;52.282;10.560;2023-04-25T07:20:54;5.05;;;1.83;;
26946;SDS011;14501;52.282;10.560;2023-04-25T07:23:20;6.15;;;1.70;;
26946;SDS011;14501;52.282;10.560;2023-04-25T07:25:46;8.40;;;1.85;;
26946;SDS011;14501;52.282;10.560;2023-04-25T07:28:11;6.13;;;1.90;;
26946;SDS011;14501;52.282;10.560;2023-04-25T07:30:37;6.68;;;1.65;;
26946;SDS011;14501;52.282;10.560;2023-04-25T07:33:03;6.55;;;1.65;;
26946;SDS011;14501;52.282;10.560;2023-04-25T07:35:28;6.30;;;2.13;;
26946;SDS011;14501;52.282;10.560;2023-04-25T07:37:54;11.52;;;1.83;;
26946;SDS011;14501;52.282;10.560;2023-04-25T07:40:20;10.27;;;2.38;;
26946;SDS011;14501;52.282;10.560;2023-04-25T07:42:46;9.23;;;1.88;;
26946;SDS011;14501;52.282;10.560;2023-04-25T07:45:12;8.57;;;2.53;;
26946;SDS011;14501;52.282;10.560;2023-04-25T07:47:37;11.32;;;2.00;;
26946;SDS011;14501;52.282;10.560;2023-04-25T07:50:03;7.97;;;1.88;;
26946;SDS011;14501;52.282;10.560;2023-04-25T07:52:29;8.25;;;1.80;;
26946;SDS011;14501;52.282;10.560;2023-04-25T07:54:55;6.80;;;1.98;;
26946;SDS011;14501;52.282;10.560;2023-04-25T07:57:22;6.78;;;1.70;;
26946;SDS011;14501;52.282;10.560;2023-04-25T07:59:49;9.50;;;2.05;;
26946;SDS011;14501;52.282;10.560;2023-04-25T08:02:15;6.85;;;1.75;;
26946;SDS011;14501;52.282;10.560;2023-04-25T08:04:40;7.00;;;2.03;;
26946;SDS011;14501;52.282;10.560;2023-04-25T08:07:06;5.78;;;1.60;;
26946;SDS011;14501;52.282;10.560;2023-04-25T08:09:32;6.65;;;1.55;;
26946;SDS011;14501;52.282;10.560;2023-04-25T08:12:01;6.85;;;1.73;;
26946;SDS011;14501;52.282;10.560;2023-04-25T08:14:28;9.70;;;1.70;;
26946;SDS011;14501;52.282;10.560;2023-04-25T08:16:56;8.82;;;2.13;;
26946;SDS011;14501;52.282;10.560;2023-04-25T08:19:21;9.63;;;1.88;;
26946;SDS011;14501;52.282;10.560;2023-04-25T08:21:47;8.23;;;2.30;;
26946;SDS011;14501;52.282;10.560;2023-04-25T08:24:13;4.13;;;1.30;;
26946;SDS011;14501;52.282;10.560;2023-04-25T08:26:38;8.75;;;1.88;;
26946;SDS011;14501;52.282;10.560;2023-04-25T08:29:05;7.03;;;1.83;;
26946;SDS011;14501;52.282;10.560;2023-04-25T08:31:31;4.25;;;1.38;;
26946;SDS011;14501;52.282;10.560;2023-04-25T08:33:57;4.65;;;1.55;;
26946;SDS011;14501;52.282;10.560;2023-04-25T08:36:22;7.53;;;1.48;;
26946;SDS011;14501;52.282;10.560;2023-04-25T08:38:48;7.30;;;2.00;;
26946;SDS011;14501;52.282;10.560;2023-04-25T08:41:14;5.95;;;1.83;;
26946;SDS011;14501;52.282;10.560;2023-04-25T08:43:41;8.18;;;1.63;;
26946;SDS011;14501;52.282;10.560;2023-04-25T08:46:08;7.97;;;1.90;;
26946;SDS011;14501;52.282;10.560;2023-04-25T08:48:36;7.88;;;2.83;;
26946;SDS011;14501;52.282;10.560;2023-04-25T08:51:02;10.20;;;2.20;;
26946;SDS011;14501;52.282;10.560;2023-04-25T08:53:32;11.55;;;3.00;;
26946;SDS011;14501;52.282;10.560;2023-04-25T08:55:59;8.55;;;2.25;;
26946;SDS011;14501;52.282;10.560;2023-04-25T08:58:29;7.82;;;2.70;;
26946;SDS011;14501;52.282;10.560;2023-04-25T09:00:55;6.22;;;2.40;;
26946;SDS011;14501;52.282;10.560;2023-04-25T09:03:21;7.45;;;2.40;;
26946;SDS011;14501;52.282;10.560;2023-04-25T09:05:47;9.10;;;2.45;;
26946;SDS011;14501;52.282;10.560;2023-04-25T09:08:12;7.93;;;2.08;;
26946;SDS011;14501;52.282;10.560;2023-04-25T09:10:38;7.28;;;1.70;;
26946;SDS011;14501;52.282;10.560;2023-04-25T09:13:06;9.40;;;2.00;;
26946;SDS011;14501;52.282;10.560;2023-04-25T09:15:47;6.90;;;1.97;;
26946;SDS011;14501;52.282;10.560;2023-04-25T09:18:21;7.40;;;2.08;;
26946;SDS011;14501;52.282;10.560;2023-04-25T09:20:48;6.28;;;1.25;;
26946;SDS011;14501;52.282;10.560;2023-04-25T09:23:14;9.27;;;1.52;;
26946;SDS011;14501;52.282;10.560;2023-04-25T09:25:40;5.97;;;1.55;;
26946;SDS011;14501;52.282;10.560;2023-04-25T09:28:07;6.07;;;1.55;;
26946;SDS011;14501;52.282;10.560;2023-04-25T09:30:34;5.72;;;1.60;;
26946;SDS011;14501;52.282;10.560;2023-04-25T09:33:04;4.50;;;1.38;;
26946;SDS011;14501;52.282;10.560;2023-04-25T09:35:40;5.22;;;1.88;;
26946;SDS011;14501;52.282;10.560;2023-04-25T09:38:16;3.55;;;1.17;;
26946;SDS011;14501;52.282;10.560;2023-04-25T09:40:44;9.38;;;1.45;;
26946;SDS011;14501;52.282;10.560;2023-04-25T09:43:20;4.30;;;1.50;;
26946;SDS011;14501;52.282;10.560;2023-04-25T09:45:47;5.82;;;1.30;;
26946;SDS011;14501;52.282;10.560;2023-04-25T09:48:17;9.15;;;2.15;;
26946;SDS011;14501;52.282;10.560;2023-04-25T09:53:35;7.90;;;1.80;;
26946;SDS011;14501;52.282;10.560;2023-04-25T09:56:06;4.88;;;1.10;;
26946;SDS011;14501;52.282;10.560;2023-04-25T09:58:33;3.45;;;1.35;;
26946;SDS011;14501;52.282;10.560;2023-04-25T10:01:01;5.55;;;1.50;;
26946;SDS011;14501;52.282;10.560;2023-04-25T10:03:32;4.72;;;1.70;;
26946;SDS011;14501;52.282;10.560;2023-04-25T10:05:59;6.28;;;1.90;;
26946;SDS011;14501;52.282;10.560;2023-04-25T10:08:30;6.05;;;1.83;;
26946;SDS011;14501;52.282;10.560;2023-04-25T10:11:01;6.20;;;1.40;;
26946;SDS011;14501;52.282;10.560;2023-04-25T10:13:29;5.40;;;1.40;;
26946;SDS011;14501;52.282;10.560;2023-04-25T10:15:59;5.43;;;1.60;;
26946;SDS011;14501;52.282;10.560;2023-04-25T10:18:27;4.72;;;1.20;;
26946;SDS011;14501;52.282;10.560;2023-04-25T10:21:02;5.95;;;1.42;;
26946;SDS011;14501;52.282;10.560;2023-04-25T10:23:30;7.90;;;1.70;;
26946;SDS011;14501;52.282;10.560;2023-04-25T10:25:56;3.42;;;1.48;;
26946;SDS011;14501;52.282;10.560;2023-04-25T10:28:23;4.72;;;1.45;;
26946;SDS011;14501;52.282;10.560;2023-04-25T10:30:59;11.95;;;1.83;;
26946;SDS011;14501;52.282;10.560;2023-04-25T10:33:30;6.10;;;1.52;;
26946;SDS011;14501;52.282;10.560;2023-04-25T10:36:30;4.63;;;1.70;;
26946;SDS011;14501;52.282;10.560;2023-04-25T10:38:56;8.00;;;1.80;;
26946;SDS011;14501;52.282;10.560;2023-04-25T10:41:31;6.80;;;1.65;;
26946;SDS011;14501;52.282;10.560;2023-04-25T10:44:10;5.68;;;1.50;;
26946;SDS011;14501;52.282;10.560;2023-04-25T10:46:35;8.13;;;1.77;;
26946;SDS011;14501;52.282;10.560;2023-04-25T10:49:02;7.35;;;1.67;;
26946;SDS011;14501;52.282;10.560;2023-04-25T10:51:29;8.68;;;2.03;;
26946;SDS011;14501;52.282;10.560;2023-04-25T10:53:59;5.03;;;1.20;;
26946;SDS011;14501;52.282;10.560;2023-04-25T10:56:27;6.32;;;1.25;;
26946;SDS011;14501;52.282;10.560;2023-04-25T11:01:37;4.85;;;1.48;;
26946;SDS011;14501;52.282;10.560;2023-04-25T11:04:03;6.70;;;1.10;;
26946;SDS011;14501;52.282;10.560;2023-04-25T11:09:20;7.68;;;1.77;;
26946;SDS011;14501;52.282;10.560;2023-04-25T11:11:55;5.38;;;2.00;;
26946;SDS011;14501;52.282;10.560;2023-04-25T11:16:52;2.08;;;1.20;;
26946;SDS011;14501;52.282;10.560;2023-04-25T11:19:20;6.05;;;1.40;;
26946;SDS011;14501;52.282;10.560;2023-04-25T11:21:45;5.07;;;1.48;;
26946;SDS011;14501;52.282;10.560;2023-04-25T11:24:11;5.65;;;1.20;;
26946;SDS011;14501;52.282;10.560;2023-04-25T11:26:37;2.97;;;0.98;;
26946;SDS011;14501;52.282;10.560;2023-04-25T11:29:02;4.05;;;1.30;;
26946;SDS011;14501;52.282;10.560;2023-04-25T11:31:28;3.83;;;1.20;;
26946;SDS011;14501;52.282;10.560;2023-04-25T11:33:56;3.22;;;1.88;;
26946;SDS011;14501;52.282;10.560;2023-04-25T11:36:23;5.18;;;1.20;;
26946;SDS011;14501;52.282;10.560;2023-04-25T11:38:51;8.43;;;1.60;;
26946;SDS011;14501;52.282;10.560;2023-04-25T11:41:18;5.55;;;1.20;;
26946;SDS011;14501;52.282;10.560;2023-04-25T11:43:44;7.38;;;1.65;;
26946;SDS011;14501;52.282;10.560;2023-04-25T11:46:10;8.68;;;1.40;;
26946;SDS011;14501;52.282;10.560;2023-04-25T11:48:36;3.33;;;1.00;;
26946;SDS011;14501;52.282;10.560;2023-04-25T11:51:05;3.30;;;1.20;;
26946;SDS011;14501;52.282;10.560;2023-04-25T11:53:31;9.57;;;1.30;;
26946;SDS011;14501;52.282;10.560;2023-04-25T11:55:57;7.20;;;1.92;;
26946;SDS011;14501;52.282;10.560;2023-04-25T11:58:23;2.22;;;1.23;;
26946;SDS011;14501;52.282;10.560;2023-04-25T12:00:50;5.38;;;1.30;;
26946;SDS011;14501;52.282;10.560;2023-04-25T12:03:17;4.38;;;1.50;;
26946;SDS011;14501;52.282;10.560;2023-04-25T12:05:43;2.95;;;1.60;;
26946;SDS011;14501;52.282;10.560;2023-04-25T12:08:13;4.80;;;1.30;;
26946;SDS011;14501;52.282;10.560;2023-04-25T12:10:40;3.63;;;1.25;;
26946;SDS011;14501;52.282;10.560;2023-04-25T12:15:45;5.82;;;1.35;;
26946;SDS011;14501;52.282;10.560;2023-04-25T12:18:10;5.45;;;0.80;;
26946;SDS011;14501;52.282;10.560;2023-04-25T12:20:36;4.70;;;1.08;;
26946;SDS011;14501;52.282;10.560;2023-04-25T12:23:02;3.03;;;1.08;;
26946;SDS011;14501;52.282;10.560;2023-04-25T12:25:39;5.72;;;1.20;;
26946;SDS011;14501;52.282;10.560;2023-04-25T12:28:27;4.40;;;1.38;;
26946;SDS011;14501;52.282;10.560;2023-04-25T12:31:00;4.65;;;0.98;;
26946;SDS011;14501;52.282;10.560;2023-04-25T12:33:30;2.38;;;1.27;;
26946;SDS011;14501;52.282;10.560;2023-04-25T12:35:57;3.83;;;1.08;;
26946;SDS011;14501;52.282;10.560;2023-04-25T12:38:24;4.22;;;1.30;;
26946;SDS011;14501;52.282;10.560;2023-04-25T12:40:50;1.38;;;0.88;;
26946;SDS011;14501;52.282;10.560;2023-04-25T12:43:16;2.13;;;0.65;;
26946;SDS011;14501;52.282;10.560;2023-04-25T12:45:42;3.15;;;0.93;;
26946;SDS011;14501;52.282;10.560;2023-04-25T12:48:08;2.53;;;0.80;;
26946;SDS011;14501;52.282;10.560;2023-04-25T12:50:34;5.45;;;1.20;;
26946;SDS011;14501;52.282;10.560;2023-04-25T12:53:00;6.38;;;1.25;;
26946;SDS011;14501;52.282;10.560;2023-04-25T12:55:25;3.42;;;1.08;;
26946;SDS011;14501;52.282;10.560;2023-04-25T12:57:51;3.85;;;0.70;;
26946;SDS011;14501;52.282;10.560;2023-04-25T13:00:17;1.45;;;0.70;;
26946;SDS011;14501;52.282;10.560;2023-04-25T13:02:44;1.67;;;0.88;;
26946;SDS011;14501;52.282;10.560;2023-04-25T13:05:11;2.17;;;0.80;;
26946;SDS011;14501;52.282;10.560;2023-04-25T13:07:37;2.97;;;0.90;;
26946;SDS011;14501;52.282;10.560;2023-04-25T13:10:03;4.82;;;1.05;;
26946;SDS011;14501;52.282;10.560;2023-04-25T13:12:30;1.58;;;0.90;;
26946;SDS011;14501;52.282;10.560;2023-04-25T13:14:56;2.65;;;1.25;;
26946;SDS011;14501;52.282;10.560;2023-04-25T13:17:22;2.92;;;1.13;;
26946;SDS011;14501;52.282;10.560;2023-04-25T13:19:47;2.63;;;1.13;;
26946;SDS011;14501;52.282;10.560;2023-04-25T13:22:13;3.38;;;0.88;;
26946;SDS011;14501;52.282;10.560;2023-04-25T13:24:40;4.38;;;1.40;;
26946;SDS011;14501;52.282;10.560;2023-04-25T13:27:06;2.92;;;0.80;;
26946;SDS011;14501;52.282;10.560;2023-04-25T13:29:32;1.70;;;1.00;;
26946;SDS011;14501;52.282;10.560;2023-04-25T13:31:59;1.98;;;1.15;;
26946;SDS011;14501;52.282;10.560;2023-04-25T13:34:25;7.57;;;1.08;;
26946;SDS011;14501;52.282;10.560;2023-04-25T13:36:51;4.22;;;1.15;;
26946;SDS011;14501;52.282;10.560;2023-04-25T13:39:17;3.22;;;1.02;;
26946;SDS011;14501;52.282;10.560;2023-04-25T13:41:42;2.55;;;0.90;;
26946;SDS011;14501;52.282;10.560;2023-04-25T13:44:08;5.40;;;1.08;;
26946;SDS011;14501;52.282;10.560;2023-04-25T13:46:34;2.90;;;0.95;;
26946;SDS011;14501;52.282;10.560;2023-04-25T13:49:02;2.60;;;0.65;;
26946;SDS011;14501;52.282;10.560;2023-04-25T13:51:28;2.83;;;0.75;;
26946;SDS011;14501;52.282;10.560;2023-04-25T13:53:54;2.47;;;1.25;;
26946;SDS011;14501;52.282;10.560;2023-04-25T13:56:19;4.63;;;0.98;;
26946;SDS011;14501;52.282;10.560;2023-04-25T13:58:45;5.55;;;0.90;;
26946;SDS011;14501;52.282;10.560;2023-04-25T14:01:11;3.15;;;0.75;;
26946;SDS011;14501;52.282;10.560;2023-04-25T14:03:36;1.65;;;0.52;;
26946;SDS011;14501;52.282;10.560;2023-04-25T14:06:02;2.83;;;0.70;;
26946;SDS011;14501;52.282;10.560;2023-04-25T14:08:29;2.58;;;0.80;;
26946;SDS011;14501;52.282;10.560;2023-04-25T14:10:55;2.38;;;0.52;;
26946;SDS011;14501;52.282;10.560;2023-04-25T14:13:20;2.45;;;0.80;;
26946;SDS011;14501;52.282;10.560;2023-04-25T14:15:46;4.20;;;0.70;;
26946;SDS011;14501;52.282;10.560;2023-04-25T14:18:11;1.23;;;0.52;;
26946;SDS011;14501;52.282;10.560;2023-04-25T14:20:37;1.48;;;0.60;;
26946;SDS011;14501;52.282;10.560;2023-04-25T14:23:03;3.58;;;0.75;;
26946;SDS011;14501;52.282;10.560;2023-04-25T14:25:29;3.00;;;0.77;;
26946;SDS011;14501;52.282;10.560;2023-04-25T14:27:55;2.67;;;0.60;;
26946;SDS011;14501;52.282;10.560;2023-04-25T14:30:20;3.83;;;0.95;;
26946;SDS011;14501;52.282;10.560;2023-04-25T14:32:48;3.88;;;1.27;;
26946;SDS011;14501;52.282;10.560;2023-04-25T14:35:14;1.95;;;0.80;;
26946;SDS011;14501;52.282;10.560;2023-04-25T14:37:40;5.43;;;1.13;;